Time;durP1;ratioP1;P1;durP2;ratioP2;P2;SDS_P1;SDS_P2;PMS_P1;PMS_P2;Temp;Humidity;BMP_temperature;BMP_pressure;BME280_temperature;BME280_humidity;BME280_pressure;Samples;Min_cycle;Max_cycle;Signal;HPM_P1;HPM_P2
2023/03/17 00:02:09;;;;;;;2.30;1.63;;;;;;;7.85;81.52;100843.13;5090550;28;20138;-35
2023/03/17 00:04:34;;;;;;;3.88;1.63;;;;;;;7.81;81.07;100839.25;5090238;28;20421;-35
2023/03/17 00:06:59;;;;;;;3.03;1.80;;;;;;;7.82;81.06;100843.59;5089910;28;20150;-35
2023/03/17 00:09:25;;;;;;;2.63;1.43;;;;;;;7.69;82.37;100819.41;5090516;28;20025;-35
2023/03/17 00:11:50;;;;;;;2.43;1.53;;;;;;;7.69;82.23;100827.47;5089180;28;20458;-35
2023/03/17 00:14:16;;;;;;;1.90;1.33;;;;;;;7.68;82.28;100829.34;5076628;28;20336;-35
2023/03/17 00:16:44;;;;;;;2.20;1.70;;;;;;;7.65;81.96;100824.38;5076295;28;20035;-35
2023/03/17 00:19:28;;;;;;;1.80;1.30;;;;;;;7.66;81.77;100823.34;5076440;28;20371;-35
2023/03/17 00:21:54;;;;;;;3.45;1.60;;;;;;;7.64;81.96;100821.91;5076950;28;20391;-35
2023/03/17 00:24:20;;;;;;;;;;;;;;;7.69;81.60;100819.41;5076758;28;20028;-35
2023/03/17 00:26:45;;;;;;;2.30;1.50;;;;;;;7.57;82.12;100810.34;5076154;28;20313;-35
2023/03/17 00:29:12;;;;;;;4.75;1.45;;;;;;;7.54;82.63;100808.88;5075975;28;20030;-35
2023/03/17 00:31:38;;;;;;;2.60;1.55;;;;;;;7.50;83.27;100804.97;5075994;28;20062;-35
2023/03/17 00:34:04;;;;;;;;;;;;;;;7.55;82.41;100799.78;5077471;28;20356;-35
2023/03/17 00:36:32;;;;;;;2.45;1.30;;;;;;;7.45;82.84;100786.75;5075642;28;20007;-35
2023/03/17 00:38:58;;;;;;;2.28;1.52;;;;;;;7.41;83.47;100790.91;5076074;28;20028;-35
2023/03/17 00:41:25;;;;;;;3.30;1.50;;;;;;;7.39;83.69;100798.38;5075749;28;20078;-35
2023/03/17 00:43:51;;;;;;;1.95;1.38;;;;;;;7.36;84.06;100798.78;5076004;28;20035;-35
2023/03/17 00:46:26;;;;;;;1.88;1.15;;;;;;;7.36;83.29;100798.78;5075712;28;20037;-35
2023/03/17 00:48:51;;;;;;;2.08;1.48;;;;;;;7.31;84.14;100792.38;5075387;28;20115;-35
2023/03/17 00:51:17;;;;;;;1.80;1.50;;;;;;;7.27;84.38;100791.16;5075918;28;20060;-35
2023/03/17 00:53:43;;;;;;;3.03;1.60;;;;;;;7.31;84.12;100800.47;5075502;28;20310;-35
2023/03/17 00:56:14;;;;;;;3.42;1.63;;;;;;;7.26;84.54;100794.88;5075806;28;20464;-35
2023/03/17 00:58:40;;;;;;;5.40;1.60;;;;;;;7.23;84.14;100796.97;5075486;28;20024;-35
2023/03/17 01:01:07;;;;;;;2.78;1.88;;;;;;;7.20;84.07;100785.81;5075364;28;20485;-35
2023/03/17 01:03:33;;;;;;;3.15;1.45;;;;;;;7.20;85.54;100788.50;5076247;28;20031;-35
2023/03/17 01:06:00;;;;;;;3.17;1.40;;;;;;;7.19;84.72;100786.84;5076179;28;20115;-35
2023/03/17 01:08:28;;;;;;;3.63;1.35;;;;;;;7.16;84.80;100790.75;5075316;28;20041;-35
2023/03/17 01:10:55;;;;;;;2.53;1.35;;;;;;;7.15;84.91;100782.91;5075537;28;20530;-35
2023/03/17 01:13:20;;;;;;;;;;;;;;;7.23;84.12;100786.22;5075561;28;20062;-35
2023/03/17 01:15:47;;;;;;;2.25;1.40;;;;;;;7.17;84.56;100784.38;5075153;28;20311;-35
2023/03/17 01:18:15;;;;;;;2.83;1.40;;;;;;;7.14;84.13;100790.16;5075625;28;20033;-36
2023/03/17 01:20:42;;;;;;;3.65;1.42;;;;;;;7.17;84.77;100788.91;5075030;28;20028;-35
2023/03/17 01:23:08;;;;;;;2.33;1.65;;;;;;;7.18;84.54;100785.19;5074711;28;20029;-35
2023/03/17 01:25:37;;;;;;;2.78;1.40;;;;;;;7.15;84.92;100774.84;5074275;28;20507;-44
2023/03/17 01:28:03;;;;;;;1.83;1.33;;;;;;;7.07;84.92;100759.75;5075116;28;20112;-35
2023/03/17 01:30:32;;;;;;;2.47;1.73;;;;;;;7.10;84.40;100770.09;5057822;28;20412;-35
2023/03/17 01:32:58;;;;;;;2.88;1.40;;;;;;;7.06;85.12;100766.16;5074495;28;20472;-35
2023/03/17 01:35:28;;;;;;;4.40;1.60;;;;;;;7.06;84.79;100773.41;5075077;28;20388;-35
2023/03/17 01:37:54;;;;;;;2.30;1.52;;;;;;;7.10;85.06;100774.66;5075009;28;20028;-35
2023/03/17 01:40:23;;;;;;;3.17;1.45;;;;;;;6.99;83.77;100756.47;5074294;28;20032;-35
2023/03/17 01:42:59;;;;;;;2.78;1.50;;;;;;;7.12;84.06;100761.81;5074531;28;20028;-35
2023/03/17 01:46:02;;;;;;;4.43;1.30;;;;;;;7.11;84.25;100762.84;5075146;28;20024;-35
2023/03/17 01:48:30;;;;;;;2.78;1.42;;;;;;;7.06;84.19;100766.16;5074431;28;20128;-36
2023/03/17 01:50:57;;;;;;;3.35;1.30;;;;;;;7.07;83.94;100764.31;5074224;28;20036;-36
2023/03/17 01:53:24;;;;;;;3.10;1.15;;;;;;;7.00;84.03;100755.44;5074625;28;20372;-36
2023/03/17 01:55:50;;;;;;;1.88;1.27;;;;;;;7.01;84.39;100759.78;5074342;28;20035;-36
2023/03/17 01:58:20;;;;;;;5.00;1.50;;;;;;;6.96;84.76;100761.22;5074844;28;20119;-36
2023/03/17 02:00:45;;;;;;;2.00;1.35;;;;;;;6.97;84.91;100751.28;5073862;28;20051;-37
2023/03/17 02:03:11;;;;;;;4.60;1.30;;;;;;;6.95;83.93;100754.19;5074501;28;20024;-36
2023/03/17 02:05:38;;;;;;;3.08;1.50;;;;;;;6.92;84.83;100743.84;5073975;28;20043;-36
2023/03/17 02:08:10;;;;;;;3.78;1.60;;;;;;;6.90;84.95;100737.88;5074136;28;20028;-36
2023/03/17 02:10:36;;;;;;;2.40;1.50;;;;;;;6.86;85.59;100736.63;5074083;28;20449;-36
2023/03/17 02:13:04;;;;;;;2.20;1.50;;;;;;;6.80;85.69;100732.09;5074828;28;20115;-36
2023/03/17 02:15:36;;;;;;;2.47;1.50;;;;;;;6.81;85.62;100731.06;5074278;28;20025;-36
2023/03/17 02:18:02;;;;;;;4.30;1.70;;;;;;;6.77;85.89;100719.06;5074240;28;20052;-36
2023/03/17 02:20:27;;;;;;;2.17;1.45;;;;;;;6.73;85.67;100728.56;5074140;28;20035;-36
2023/03/17 02:22:54;;;;;;;2.53;1.60;;;;;;;6.70;85.55;100723.63;5073891;28;20028;-36
2023/03/17 02:25:23;;;;;;;3.67;1.50;;;;;;;6.70;85.82;100739.75;5074122;28;20111;-36
2023/03/17 02:27:54;;;;;;;3.03;1.45;;;;;;;6.66;86.95;100733.16;5074094;28;20021;-36
2023/03/17 02:30:22;;;;;;;2.30;1.55;;;;;;;6.62;86.44;100729.22;5074071;28;20078;-36
2023/03/17 02:32:47;;;;;;;3.40;1.60;;;;;;;6.59;87.22;100718.91;5074522;28;20024;-36
2023/03/17 02:35:13;;;;;;;2.63;1.40;;;;;;;6.67;87.28;100726.72;5073231;28;20035;-36
2023/03/17 02:37:38;;;;;;;2.28;1.50;;;;;;;6.67;87.28;100724.03;5073787;28;20040;-36
2023/03/17 02:40:06;;;;;;;2.80;1.57;;;;;;;6.66;87.19;100719.72;5074554;28;20033;-36
2023/03/17 02:42:33;;;;;;;4.93;1.63;;;;;;;6.66;86.53;100717.03;5073258;28;20024;-36
2023/03/17 02:44:59;;;;;;;2.55;1.58;;;;;;;6.64;87.11;100701.13;5073624;28;20024;-36
2023/03/17 02:47:24;;;;;;;2.00;1.40;;;;;;;6.68;86.13;100705.00;5073560;28;20354;-36
2023/03/17 02:49:50;;;;;;;2.92;1.33;;;;;;;6.69;86.55;100712.06;5073605;28;20100;-36
2023/03/17 02:52:16;;;;;;;3.22;1.30;;;;;;;6.67;87.14;100705.22;5073499;28;20419;-36
2023/03/17 02:54:41;;;;;;;2.83;1.37;;;;;;;6.69;85.55;100712.06;5073788;28;20103;-36
2023/03/17 02:57:07;;;;;;;2.00;1.38;;;;;;;6.69;86.12;100705.88;5073440;28;20279;-36
2023/03/17 02:59:33;;;;;;;4.63;1.50;;;;;;;6.69;86.51;100697.81;5074066;28;20103;-36
2023/03/17 03:01:58;;;;;;;3.40;1.50;;;;;;;6.69;86.23;100700.50;5073590;28;20068;-36
2023/03/17 03:04:24;;;;;;;3.47;1.70;;;;;;;6.67;86.47;100702.53;5074300;28;20116;-36
2023/03/17 03:06:51;;;;;;;3.28;1.40;;;;;;;6.69;86.06;100704.00;5073359;28;20048;-36
2023/03/17 03:09:16;;;;;;;3.13;1.17;;;;;;;6.60;86.57;100696.38;5073675;28;20439;-36
2023/03/17 03:11:43;;;;;;;2.70;1.35;;;;;;;6.69;85.82;100720.13;5073344;28;20054;-36
2023/03/17 03:14:08;;;;;;;;;;;;;;;6.75;85.64;100714.94;5073739;28;20032;-36
2023/03/17 03:16:33;;;;;;;2.08;1.42;;;;;;;6.63;87.71;100696.75;5073117;28;19912;-36
2023/03/17 03:18:59;;;;;;;3.33;1.63;;;;;;;6.64;87.17;100698.44;5072957;28;20462;-36
2023/03/17 03:21:25;;;;;;;5.05;1.70;;;;;;;6.63;87.97;100706.69;5073179;28;20033;-35
2023/03/17 03:23:51;;;;;;;3.42;1.50;;;;;;;6.65;86.16;100712.69;5073707;28;20032;-35
2023/03/17 03:26:16;;;;;;;2.50;1.45;;;;;;;6.62;86.26;100718.47;5073278;28;20032;-36
2023/03/17 03:28:42;;;;;;;2.47;1.30;;;;;;;6.63;86.81;100717.44;5073411;28;20029;-36
2023/03/17 03:31:07;;;;;;;4.77;1.83;;;;;;;6.64;86.95;100721.78;5089435;28;20385;-36
2023/03/17 03:33:33;;;;;;;3.03;1.60;;;;;;;6.54;86.56;100707.91;5072831;28;20055;-36
2023/03/17 03:35:59;;;;;;;2.70;1.65;;;;;;;6.63;86.77;100730.88;5073446;28;20058;-35
2023/03/17 03:38:25;;;;;;;2.75;1.55;;;;;;;6.61;85.86;100720.34;5073076;28;20035;-36
2023/03/17 03:40:51;;;;;;;2.97;1.48;;;;;;;6.60;86.56;100712.50;5073806;28;20035;-36
2023/03/17 03:43:16;;;;;;;2.08;1.45;;;;;;;6.59;86.31;100713.53;5072718;28;20024;-36
2023/03/17 03:45:42;;;;;;;2.90;1.60;;;;;;;6.50;86.77;100706.72;5073422;28;20086;-36
2023/03/17 03:48:07;;;;;;;2.60;1.50;;;;;;;6.62;87.68;100737.28;5074374;28;20279;-36
2023/03/17 03:50:33;;;;;;;2.47;1.38;;;;;;;6.53;86.50;100711.66;5077394;28;20115;-36
2023/03/17 03:52:58;;;;;;;2.67;1.43;;;;;;;6.64;86.31;100733.34;5076426;28;20028;-35
2023/03/17 03:55:24;;;;;;;2.43;1.43;;;;;;;6.64;86.51;100743.28;5077272;28;20025;-35
2023/03/17 03:57:49;;;;;;;6.07;1.25;;;;;;;6.63;86.23;100726.31;5076367;28;20130;-36
2023/03/17 04:00:16;;;;;;;3.63;1.33;;;;;;;6.64;85.96;100735.22;5076397;28;20035;-36
2023/03/17 04:02:46;;;;;;;3.15;1.60;;;;;;;6.61;85.41;100733.75;5077522;28;20073;-36
2023/03/17 04:05:17;;;;;;;2.60;1.45;;;;;;;6.64;85.07;100744.09;5077035;28;20103;-36
2023/03/17 04:07:42;;;;;;;2.80;1.38;;;;;;;6.66;85.97;100750.09;5076544;28;20017;-36
2023/03/17 04:10:10;;;;;;;2.10;1.20;;;;;;;6.62;85.63;100739.97;5076694;28;20480;-36
2023/03/17 04:12:36;;;;;;;4.25;1.52;;;;;;;6.64;85.66;100749.47;5076876;28;20028;-36
2023/03/17 04:15:02;;;;;;;2.75;1.45;;;;;;;6.67;85.91;100742.84;5077160;28;20042;-36
2023/03/17 04:17:27;;;;;;;3.05;1.58;;;;;;;6.55;85.39;100725.72;5075932;28;20021;-35
2023/03/17 04:19:52;;;;;;;2.50;1.83;;;;;;;6.63;84.95;100738.91;5076285;28;20108;-36
2023/03/17 04:22:17;;;;;;;2.97;1.57;;;;;;;6.62;85.59;100735.41;5075824;28;20056;-36
2023/03/17 04:24:43;;;;;;;2.73;1.60;;;;;;;6.62;86.19;100732.72;5076494;28;20059;-36
2023/03/17 04:27:09;;;;;;;3.27;1.50;;;;;;;6.61;85.66;100741.81;5076083;28;20028;-36
2023/03/17 04:29:35;;;;;;;2.28;1.40;;;;;;;6.54;85.97;100732.09;5076067;28;20116;-36
2023/03/17 04:32:02;;;;;;;2.50;1.10;;;;;;;6.55;85.98;100733.78;5076079;28;20039;-36
2023/03/17 04:34:28;;;;;;;2.25;1.48;;;;;;;6.58;85.76;100742.22;5076256;28;20063;-36
2023/03/17 04:36:53;;;;;;;3.00;1.52;;;;;;;6.60;85.56;100739.34;5076006;28;20135;-36
2023/03/17 04:39:19;;;;;;;2.53;1.23;;;;;;;6.61;86.14;100741.00;5075686;28;20029;-36
2023/03/17 04:41:45;;;;;;;2.77;1.47;;;;;;;6.59;86.41;100748.47;5076294;28;20021;-36
2023/03/17 04:44:11;;;;;;;2.40;1.40;;;;;;;6.58;86.22;100736.03;5075794;28;20460;-36
2023/03/17 04:46:37;;;;;;;2.08;1.40;;;;;;;6.48;86.23;100724.88;5076142;28;20028;-36
2023/03/17 04:49:02;;;;;;;2.50;1.30;;;;;;;6.54;85.77;100745.53;5076248;28;20016;-36
2023/03/17 04:51:28;;;;;;;3.60;1.50;;;;;;;6.51;85.97;100732.53;5075640;28;20033;-39
2023/03/17 04:53:53;;;;;;;3.63;1.40;;;;;;;6.42;85.86;100721.97;5075666;28;20029;-36
2023/03/17 04:56:18;;;;;;;2.63;1.50;;;;;;;6.38;86.56;100701.94;5075807;28;20031;-36
2023/03/17 04:58:44;;;;;;;3.13;1.60;;;;;;;6.60;86.54;100739.34;5075677;28;20024;-35
2023/03/17 05:01:09;;;;;;;2.80;1.45;;;;;;;6.63;85.77;100739.75;5075517;28;20053;-35
2023/03/17 05:03:35;;;;;;;2.65;1.10;;;;;;;6.60;86.51;100739.34;5075449;28;20111;-35
2023/03/17 05:06:02;;;;;;;2.70;1.30;;;;;;;6.60;86.55;100729.44;5075390;28;20074;-36
2023/03/17 05:08:27;;;;;;;4.78;1.60;;;;;;;6.56;86.76;100725.50;5075596;28;20029;-35
2023/03/17 05:10:54;;;;;;;3.47;1.17;;;;;;;6.56;86.37;100716.63;5075914;28;20028;-36
2023/03/17 05:13:20;;;;;;;3.45;1.35;;;;;;;6.54;86.69;100714.16;5075956;28;20372;-35
2023/03/17 05:15:47;;;;;;;3.05;1.40;;;;;;;6.52;86.95;100726.13;5075779;28;20039;-35
2023/03/17 05:18:13;;;;;;;3.47;1.60;;;;;;;6.44;87.86;100709.19;5057198;28;20024;-36
2023/03/17 05:20:38;;;;;;;2.97;1.88;;;;;;;6.51;87.38;100719.09;5075630;28;20528;-35
2023/03/17 05:23:03;;;;;;;3.07;1.40;;;;;;;6.52;86.12;100720.75;5075098;28;20024;-36
2023/03/17 05:25:29;;;;;;;2.57;1.27;;;;;;;6.49;86.62;100719.31;5075030;28;20043;-35
2023/03/17 05:27:54;;;;;;;2.53;1.60;;;;;;;6.48;86.71;100731.06;5074635;28;20119;-35
2023/03/17 05:30:19;;;;;;;3.27;1.60;;;;;;;6.47;88.29;100723.22;5075434;28;20035;-36
2023/03/17 05:32:45;;;;;;;2.47;1.40;;;;;;;6.45;88.42;100726.13;5074694;28;20029;-35
2023/03/17 05:35:11;;;;;;;4.63;1.40;;;;;;;6.45;88.45;100724.28;5074938;28;20073;-36
2023/03/17 05:37:36;;;;;;;1.75;1.30;;;;;;;6.42;88.07;100721.16;5074604;28;20051;-35
2023/03/17 05:40:02;;;;;;;3.07;1.47;;;;;;;6.48;88.03;100739.13;5074869;28;20028;-35
2023/03/17 05:42:27;;;;;;;2.97;1.52;;;;;;;6.43;89.33;100734.38;5074948;28;20279;-36
2023/03/17 05:44:53;;;;;;;5.40;1.80;;;;;;;6.43;88.29;100739.75;5074158;28;20060;-36
2023/03/17 05:47:18;;;;;;;2.27;1.50;;;;;;;6.41;88.33;100749.88;5074827;28;20052;-36
2023/03/17 05:49:44;;;;;;;2.17;1.45;;;;;;;6.29;88.30;100730.03;5074859;28;20020;-36
2023/03/17 05:52:09;;;;;;;2.13;1.40;;;;;;;6.37;88.87;100734.38;5074533;28;20365;-36
2023/03/17 05:54:35;;;;;;;2.27;1.33;;;;;;;6.33;88.64;100733.97;5074528;28;20384;-36
2023/03/17 05:57:00;;;;;;;4.45;1.70;;;;;;;6.36;88.40;100730.88;5074182;28;20400;-35
2023/03/17 05:59:26;;;;;;;3.05;1.38;;;;;;;6.34;89.57;100727.56;5074366;28;20107;-36
2023/03/17 06:01:51;;;;;;;3.15;1.60;;;;;;;6.33;89.13;100717.03;5074377;28;20055;-36
2023/03/17 06:04:17;;;;;;;3.03;1.50;;;;;;;6.21;89.80;100705.25;5074262;28;20031;-36
2023/03/17 06:06:42;;;;;;;3.17;1.90;;;;;;;6.30;90.33;100728.19;5074252;28;20029;-36
2023/03/17 06:09:08;;;;;;;5.37;1.80;;;;;;;6.21;89.97;100713.31;5056228;28;20115;-36
2023/03/17 06:11:33;;;;;;;4.80;1.50;;;;;;;6.29;90.12;100721.97;5074198;28;20020;-36
2023/03/17 06:13:58;;;;;;;2.60;1.43;;;;;;;6.33;90.94;100728.59;5074349;28;20025;-36
2023/03/17 06:16:24;;;;;;;3.27;1.77;;;;;;;6.34;89.82;100735.59;5074357;28;20039;-36
2023/03/17 06:18:50;;;;;;;3.00;1.52;;;;;;;6.36;90.39;100725.50;5073700;28;20028;-36
2023/03/17 06:21:15;;;;;;;3.17;1.65;;;;;;;6.39;90.23;100727.78;5073855;28;20154;-36
2023/03/17 06:23:41;;;;;;;2.25;1.42;;;;;;;6.38;89.37;100720.75;5073681;28;20454;-36
2023/03/17 06:26:07;;;;;;;2.60;1.40;;;;;;;6.42;90.55;100732.72;5074186;28;20039;-36
2023/03/17 06:28:33;;;;;;;3.85;1.40;;;;;;;6.38;89.71;100720.75;5073532;28;20021;-41
2023/03/17 06:30:58;;;;;;;3.17;1.53;;;;;;;6.47;89.65;100728.59;5074425;28;20039;-36
2023/03/17 06:33:24;;;;;;;3.53;1.60;;;;;;;6.46;89.79;100727.78;5073463;28;20329;-36
2023/03/17 06:35:50;;;;;;;5.13;1.63;;;;;;;6.52;89.43;100734.19;5074567;28;20078;-36
2023/03/17 06:38:16;;;;;;;4.00;1.45;;;;;;;6.52;89.92;100728.81;5073394;28;20029;-36
2023/03/17 06:40:41;;;;;;;4.75;1.77;;;;;;;6.58;89.65;100736.03;5073312;28;20116;-36
2023/03/17 06:43:07;;;;;;;2.47;1.40;;;;;;;6.61;90.19;100731.06;5073922;28;20060;-36
2023/03/17 06:45:33;;;;;;;3.37;1.80;;;;;;;6.62;89.51;100737.28;5073983;28;20049;-36
2023/03/17 06:47:59;;;;;;;3.47;1.90;;;;;;;6.62;89.46;100738.09;5073563;28;20028;-36
2023/03/17 06:50:24;;;;;;;2.67;1.50;;;;;;;6.66;89.49;100736.66;5073957;28;20430;-36
2023/03/17 06:52:50;;;;;;;3.30;1.73;;;;;;;6.66;89.33;100728.59;5074097;28;20035;-36
2023/03/17 06:55:16;;;;;;;3.47;1.60;;;;;;;6.77;88.88;100739.75;5073872;28;20707;-36
2023/03/17 06:57:42;;;;;;;5.10;1.70;;;;;;;6.72;88.87;100722.38;5073773;28;20032;-36
2023/03/17 07:00:08;;;;;;;2.88;1.55;;;;;;;6.82;89.37;100731.88;5073544;28;20033;-36
2023/03/17 07:02:34;;;;;;;;;;;;;;;6.91;88.81;100736.00;5073747;28;20048;-36
2023/03/17 07:05:00;;;;;;;4.07;1.63;;;;;;;6.91;90.60;100728.75;5073445;28;19912;-36
2023/03/17 07:07:26;;;;;;;6.72;2.05;;;;;;;7.00;89.87;100726.69;5073118;28;20150;-36
2023/03/17 07:09:52;;;;;;;3.65;2.28;;;;;;;7.04;89.20;100732.47;5073697;28;20078;-36
2023/03/17 07:12:18;;;;;;;;;;;;;;;7.14;88.54;100732.84;5073466;28;20465;-36
2023/03/17 07:14:44;;;;;;;4.47;1.92;;;;;;;7.15;89.46;100727.25;5073883;28;19935;-36
2023/03/17 07:17:11;;;;;;;5.07;2.50;;;;;;;7.08;89.51;100714.88;5073080;28;20036;-35
2023/03/17 07:19:37;;;;;;;3.08;2.10;;;;;;;7.24;88.22;100725.19;5074148;28;20032;-36
2023/03/17 07:22:02;;;;;;;4.33;2.20;;;;;;;7.20;88.07;100718.56;5073220;28;20031;-36
2023/03/17 07:24:27;;;;;;;5.17;1.90;;;;;;;7.32;88.85;100727.63;5077528;28;20056;-36
2023/03/17 07:26:53;;;;;;;3.17;1.50;;;;;;;7.44;87.81;100733.16;5077228;28;20035;-36
2023/03/17 07:29:18;;;;;;;3.47;2.10;;;;;;;7.49;87.94;100731.50;5077806;28;20541;-36
2023/03/17 07:31:44;;;;;;;4.72;2.53;;;;;;;7.57;87.80;100732.31;5077137;28;20025;-37
2023/03/17 07:34:10;;;;;;;4.15;2.15;;;;;;;7.61;87.37;100726.28;5077170;28;20035;-37
2023/03/17 07:36:36;;;;;;;5.10;2.50;;;;;;;7.65;87.16;100721.28;5077060;28;20039;-37
2023/03/17 07:39:02;;;;;;;;;;;;;;;7.72;87.23;100711.31;5077091;28;20476;-36
2023/03/17 07:41:28;;;;;;;6.50;2.05;;;;;;;7.71;86.86;100705.13;5076628;28;19920;-36
2023/03/17 07:43:53;;;;;;;6.10;2.17;;;;;;;7.74;87.63;100698.47;5077007;28;20017;-37
2023/03/17 07:46:18;;;;;;;4.55;2.00;;;;;;;7.86;87.67;100699.44;5076882;28;20077;-35
2023/03/17 07:48:45;;;;;;;3.78;2.20;;;;;;;7.92;87.26;100701.25;5076569;28;20031;-35
2023/03/17 07:51:16;;;;;;;4.78;2.50;;;;;;;7.97;86.88;100712.19;5076443;28;20032;-36
2023/03/17 07:53:41;;;;;;;3.70;2.22;;;;;;;8.02;85.55;100719.63;5077317;28;20426;-36
2023/03/17 07:56:08;;;;;;;3.70;1.90;;;;;;;7.90;86.05;100695.25;5077268;28;20033;-36
2023/03/17 07:58:34;;;;;;;4.22;2.10;;;;;;;8.00;85.81;100703.69;5076874;28;20389;-36
2023/03/17 08:01:00;;;;;;;8.02;2.40;;;;;;;8.20;85.17;100725.09;5076256;28;20032;-36
2023/03/17 08:03:26;;;;;;;;;;;;;;;8.30;86.05;100729.19;5077574;28;20407;-36
2023/03/17 08:05:54;;;;;;;5.97;2.10;;;;;;;8.34;84.54;100731.19;5076775;28;19916;-36
2023/03/17 08:08:21;;;;;;;4.75;2.10;;;;;;;8.32;84.76;100714.44;5076437;28;20028;-36
2023/03/17 08:10:46;;;;;;;5.63;1.98;;;;;;;8.46;83.96;100740.25;5076384;28;20047;-36
2023/03/17 08:13:13;;;;;;;4.57;2.08;;;;;;;8.52;84.46;100730.47;5076065;28;20032;-36
2023/03/17 08:15:38;;;;;;;7.47;2.42;;;;;;;8.56;84.75;100723.59;5076362;28;20029;-36
2023/03/17 08:18:03;;;;;;;5.10;2.33;;;;;;;8.56;85.96;100709.31;5076575;28;20111;-36
2023/03/17 08:20:29;;;;;;;6.03;2.67;;;;;;;8.65;84.23;100724.16;5077041;28;20052;-36
2023/03/17 08:22:55;;;;;;;6.27;2.27;;;;;;;8.65;85.27;100727.66;5077001;28;20368;-36
2023/03/17 08:25:20;;;;;;;;;;;;;;;8.77;85.07;100735.84;5076852;28;20025;-36
2023/03/17 08:27:46;;;;;;;4.00;2.13;;;;;;;8.79;84.84;100724.88;5076390;28;19935;-36
2023/03/17 08:30:11;;;;;;;3.77;2.03;;;;;;;8.86;85.47;100718.34;5076678;28;20032;-36
2023/03/17 08:32:37;;;;;;;4.22;2.47;;;;;;;8.92;84.44;100716.63;5075790;28;20071;-36
2023/03/17 08:35:05;;;;;;;4.13;2.27;;;;;;;8.96;85.04;100726.75;5075875;28;20070;-36
2023/03/17 08:37:31;;;;;;;5.53;3.03;;;;;;;9.03;83.92;100724.00;5075620;28;20037;-36
2023/03/17 08:39:56;;;;;;;6.13;2.70;;;;;;;9.12;84.22;100716.41;5076749;28;20039;-36
2023/03/17 08:42:22;;;;;;;7.50;2.88;;;;;;;9.16;83.45;100709.53;5076908;28;20021;-36
2023/03/17 08:44:47;;;;;;;10.30;2.53;;;;;;;9.25;82.88;100711.69;5076101;28;20377;-36
2023/03/17 08:47:13;;;;;;;6.45;2.22;;;;;;;9.34;82.32;100706.81;5075732;28;20043;-36
2023/03/17 08:49:38;;;;;;;4.97;2.60;;;;;;;9.29;82.56;100680.50;5076400;28;20043;-36
2023/03/17 08:52:04;;;;;;;4.80;2.30;;;;;;;9.46;81.47;100707.69;5075668;28;20028;-36
2023/03/17 08:54:29;;;;;;;6.20;2.35;;;;;;;9.59;81.36;100711.28;5075610;28;20035;-36
2023/03/17 08:56:56;;;;;;;5.67;2.43;;;;;;;9.67;81.66;100714.50;5075369;28;20104;-36
2023/03/17 08:59:22;;;;;;;5.25;2.08;;;;;;;9.77;81.43;100720.19;5075795;28;20369;-36
2023/03/17 09:01:47;;;;;;;4.65;2.80;;;;;;;9.91;81.74;100722.72;5075672;28;20055;-36
2023/03/17 09:04:13;;;;;;;8.00;2.97;;;;;;;9.99;81.27;100704.28;5076611;28;20425;-35
2023/03/17 09:06:39;;;;;;;;;;;;;;;10.17;82.20;100706.09;5075544;28;20032;-36
2023/03/17 09:09:05;;;;;;;6.03;2.22;;;;;;;10.29;78.75;100698.03;5075095;28;19919;-36
2023/03/17 09:11:31;;;;;;;;;;;;;;;10.37;80.69;100692.28;5075742;28;20029;-36
2023/03/17 09:13:58;;;;;;;5.07;2.22;;;;;;;10.40;78.10;100691.03;5057305;28;19963;-36
2023/03/17 09:16:24;;;;;;;6.65;2.58;;;;;;;10.53;78.50;100697.00;5075217;28;20549;-36
2023/03/17 09:18:49;;;;;;;;;;;;;;;10.62;78.23;100702.88;5075293;28;20028;-36
2023/03/17 09:21:15;;;;;;;6.07;2.20;;;;;;;10.72;76.86;100694.19;5075052;28;19919;-36
2023/03/17 09:23:41;;;;;;;6.95;2.72;;;;;;;10.77;78.08;100702.41;5075886;28;20078;-36
2023/03/17 09:26:06;;;;;;;6.13;2.38;;;;;;;10.79;77.02;100686.78;5075321;28;20511;-36
2023/03/17 09:28:32;;;;;;;5.88;2.40;;;;;;;10.90;75.73;100685.94;5074707;28;20024;-36
2023/03/17 09:31:02;;;;;;;4.50;2.28;;;;;;;10.92;75.11;100683.81;5075199;28;20366;-36
2023/03/17 09:33:28;;;;;;;5.03;2.00;;;;;;;11.01;74.86;100689.69;5075247;28;20025;-36
2023/03/17 09:35:55;;;;;;;5.80;2.40;;;;;;;11.10;74.73;100701.81;5075123;28;20031;-36
2023/03/17 09:38:22;;;;;;;4.53;2.53;;;;;;;11.25;75.53;100706.72;5075548;28;20111;-36
2023/03/17 09:41:11;;;;;;;8.45;2.42;;;;;;;11.38;75.19;100701.06;5074354;28;20166;-36
2023/03/17 09:43:55;;;;;;;4.30;2.30;;;;;;;11.49;74.00;100688.53;5074673;28;20499;-36
2023/03/17 09:46:33;;;;;;;4.22;2.20;;;;;;;11.54;73.21;100681.31;5074127;28;20078;-36
2023/03/17 09:49:02;;;;;;;6.60;2.40;;;;;;;11.56;73.58;100690.03;5074546;28;20480;-36
2023/03/17 09:51:31;;;;;;;4.78;2.15;;;;;;;11.54;72.73;100697.56;5075093;28;20028;-36
2023/03/17 09:54:01;;;;;;;4.00;2.20;;;;;;;11.45;72.74;100700.91;5074308;28;20028;-36
2023/03/17 09:56:30;;;;;;;5.15;2.45;;;;;;;11.48;72.41;100703.97;5061567;28;20431;-36
2023/03/17 09:58:59;;;;;;;4.70;2.20;;;;;;;11.52;73.08;100702.41;5073290;28;20029;-36
2023/03/17 10:01:25;;;;;;;4.20;2.10;;;;;;;11.52;73.08;100709.72;5073907;28;20048;-36
2023/03/17 10:03:51;;;;;;;5.78;2.30;;;;;;;11.57;74.66;100707.94;5074162;28;20043;-36
2023/03/17 10:06:49;;;;;;;4.93;2.40;;;;;;;11.64;75.00;100706.97;5055071;28;20058;-36
2023/03/17 10:09:28;;;;;;;4.70;2.65;;;;;;;11.60;74.26;100718.28;5010530;28;20044;-36
2023/03/17 10:12:06;;;;;;;4.85;2.30;;;;;;;11.59;74.38;100724.75;5054197;28;20037;-36
2023/03/17 10:14:45;;;;;;;3.65;2.22;;;;;;;11.69;75.20;100736.84;5054370;28;20029;-36
2023/03/17 10:17:22;;;;;;;6.35;2.08;;;;;;;11.78;75.17;100730.81;5054636;28;20116;-36
2023/03/17 10:19:57;;;;;;;4.72;2.47;;;;;;;11.81;74.53;100734.94;5054253;28;20021;-36
2023/03/17 10:22:29;;;;;;;5.22;2.00;;;;;;;11.74;73.86;100723.41;5054196;28;20079;-40
2023/03/17 10:25:01;;;;;;;5.78;2.10;;;;;;;11.79;73.72;100732.47;5054219;28;20033;-37
2023/03/17 10:27:31;;;;;;;4.10;1.90;;;;;;;11.82;76.36;100748.28;5054131;28;20029;-36
2023/03/17 10:29:56;;;;;;;5.60;1.95;;;;;;;11.85;75.34;100768.63;5054152;28;20033;-37
2023/03/17 10:32:21;;;;;;;5.35;1.92;;;;;;;11.91;75.72;100742.44;5054600;28;20384;-36
2023/03/17 10:34:47;;;;;;;5.00;2.05;;;;;;;12.03;74.69;100744.06;5054251;28;20025;-36
2023/03/17 10:37:17;;;;;;;3.90;2.20;;;;;;;12.08;76.25;100741.44;5053726;28;20025;-37
2023/03/17 10:39:48;;;;;;;5.07;2.15;;;;;;;12.25;74.95;100746.06;5054281;28;20475;-37
2023/03/17 10:42:25;;;;;;;3.85;1.75;;;;;;;12.33;74.93;100745.66;5054359;28;20029;-36
2023/03/17 10:45:11;;;;;;;4.30;1.98;;;;;;;12.41;74.06;100749.88;5053923;28;20025;-36
2023/03/17 10:47:38;;;;;;;5.97;2.25;;;;;;;12.62;73.05;100752.66;5053900;28;20039;-36
2023/03/17 10:50:04;;;;;;;4.38;2.13;;;;;;;12.78;70.38;100759.16;5053878;28;20025;-36
2023/03/17 10:52:34;;;;;;;3.28;1.90;;;;;;;13.00;71.84;100745.66;5053451;28;20045;-36
2023/03/17 10:55:04;;;;;;;3.47;1.67;;;;;;;13.18;70.63;100746.44;5054064;28;20028;-36
2023/03/17 10:57:30;;;;;;;2.33;1.73;;;;;;;13.27;71.44;100726.75;5053842;28;20378;-36
2023/03/17 10:59:56;;;;;;;;;;;;;;;13.40;72.17;100731.81;5054158;28;20056;-36
2023/03/17 11:02:34;;;;;;;2.30;1.65;;;;;;;13.44;70.13;100736.78;5053827;28;19920;-37
2023/03/17 11:05:04;;;;;;;2.83;1.70;;;;;;;13.49;71.15;100723.25;5053757;28;20057;-37
2023/03/17 11:07:37;;;;;;;3.10;1.52;;;;;;;13.62;68.21;100734.56;5054071;28;20116;-37
2023/03/17 11:10:13;;;;;;;2.97;1.70;;;;;;;13.80;68.18;100733.38;5053733;28;20469;-37
2023/03/17 11:12:39;;;;;;;2.90;1.95;;;;;;;13.82;69.68;100717.66;5053113;28;20033;-37
2023/03/17 11:15:06;;;;;;;;;;;;;;;13.92;71.93;100716.94;5054113;28;20079;-37
2023/03/17 11:17:41;;;;;;;5.95;1.85;;;;;;;14.04;67.24;100714.06;5052987;28;20321;-37
2023/03/17 11:20:35;;;;;;;3.95;1.48;;;;;;;14.27;69.54;100708.31;5053298;28;20055;-37
2023/03/17 11:23:14;;;;;;;3.35;1.83;;;;;;;14.39;66.09;100699.97;5053261;28;20032;-36
2023/03/17 11:25:44;;;;;;;3.20;1.75;;;;;;;14.35;65.59;100696.97;5053545;28;20033;-37
2023/03/17 11:28:26;;;;;;;3.05;1.70;;;;;;;14.50;66.45;100704.44;5053233;28;20032;-37
2023/03/17 11:31:01;;;;;;;3.88;1.95;;;;;;;14.49;64.66;100691.91;5053247;28;20079;-37
2023/03/17 11:33:56;;;;;;;3.60;2.05;;;;;;;14.50;66.44;100692.75;5053229;28;20084;-37
2023/03/17 11:36:24;;;;;;;2.92;2.03;;;;;;;14.47;66.02;100688.59;5053232;28;20480;-37